Time;durP1;ratioP1;P1;durP2;ratioP2;P2;SDS_P1;SDS_P2;PMS_P1;PMS_P2;Temp;Humidity;BMP_temperature;BMP_pressure;BME280_temperature;BME280_humidity;BME280_pressure;Samples;Min_cycle;Max_cycle;Signal;HPM_P1;HPM_P2
2023/09/20 00:00:29;;;;;;;3.13;1.52;;;13.70;99.90;;;;;;6065517;23;20185;-89
2023/09/20 00:02:58;;;;;;;1.63;1.48;;;13.60;99.90;;;;;;6064692;23;20177;-89
2023/09/20 00:05:26;;;;;;;2.47;1.35;;;13.70;99.90;;;;;;6064779;23;20173;-89
2023/09/20 00:07:54;;;;;;;1.60;1.50;;;13.80;99.90;;;;;;6066232;23;20205;-89
2023/09/20 00:10:21;;;;;;;1.77;1.33;;;13.70;99.90;;;;;;6041166;23;20253;-89
2023/09/20 00:12:48;;;;;;;1.88;1.40;;;13.60;99.90;;;;;;6040148;23;20193;-89
2023/09/20 00:15:15;;;;;;;1.33;1.23;;;13.50;99.90;;;;;;6064615;23;20177;-89
2023/09/20 00:17:42;;;;;;;3.15;1.50;;;13.60;99.90;;;;;;6039618;23;20174;-90
2023/09/20 00:20:13;;;;;;;2.05;1.60;;;13.60;99.90;;;;;;6065233;23;20564;-89
2023/09/20 00:22:42;;;;;;;1.48;1.38;;;13.70;99.90;;;;;;6065777;23;20174;-89
2023/09/20 00:25:10;;;;;;;2.05;1.30;;;13.90;99.90;;;;;;6067268;23;20201;-89
2023/09/20 00:27:39;;;;;;;2.28;1.30;;;14.00;99.90;;;;;;6066586;23;20177;-89
2023/09/20 00:30:10;;;;;;;2.03;1.40;;;14.00;99.30;;;;;;6066450;23;20663;-89
2023/09/20 00:32:40;;;;;;;4.35;1.52;;;14.00;99.60;;;;;;6042440;23;20221;-89
2023/09/20 00:35:10;;;;;;;1.35;1.25;;;13.90;99.40;;;;;;6067700;23;20612;-89
2023/09/20 00:37:39;;;;;;;1.63;1.13;;;13.90;99.90;;;;;;6067128;23;20240;-89
2023/09/20 00:40:15;;;;;;;1.83;1.35;;;13.80;99.90;;;;;;6067527;23;20188;-89
2023/09/20 00:42:43;;;;;;;2.13;1.33;;;13.70;99.90;;;;;;6067068;23;20165;-89
2023/09/20 00:45:12;;;;;;;2.40;1.40;;;13.50;99.90;;;;;;6041465;23;20188;-89
2023/09/20 00:47:40;;;;;;;1.75;1.40;;;13.40;99.90;;;;;;6040706;23;20185;-89
2023/09/20 00:50:10;;;;;;;1.30;1.20;;;13.40;99.90;;;;;;6040949;23;20178;-89
2023/09/20 00:52:51;;;;;;;1.70;1.60;;;13.40;99.90;;;;;;6040940;23;20177;-89
2023/09/20 00:55:21;;;;;;;1.70;1.60;;;13.40;99.90;;;;;;6044641;23;20172;-89
2023/09/20 00:57:51;;;;;;;2.38;1.20;;;13.30;99.90;;;;;;6065769;23;20609;-89
2023/09/20 01:00:21;;;;;;;1.42;1.23;;;13.30;99.90;;;;;;6042787;23;20181;-89
2023/09/20 01:02:53;;;;;;;1.67;1.30;;;13.30;99.90;;;;;;6042699;23;20542;-89
2023/09/20 01:05:25;;;;;;;2.88;1.38;;;13.30;99.90;;;;;;6066951;23;20179;-89
2023/09/20 01:07:55;;;;;;;1.63;1.30;;;13.30;99.90;;;;;;5997537;23;20269;-89
2023/09/20 01:10:23;;;;;;;2.17;1.20;;;13.30;99.90;;;;;;6066976;23;20172;-89
2023/09/20 01:12:53;;;;;;;1.92;1.35;;;13.20;99.90;;;;;;6041192;23;20209;-89
2023/09/20 01:15:21;;;;;;;1.33;1.23;;;13.20;99.90;;;;;;6067111;23;20497;-89
2023/09/20 01:17:48;;;;;;;1.63;1.40;;;13.20;99.90;;;;;;6066075;23;20231;-89
2023/09/20 01:20:18;;;;;;;2.97;1.40;;;13.20;99.90;;;;;;6066988;23;20173;-89
2023/09/20 01:22:47;;;;;;;1.40;1.30;;;13.20;99.90;;;;;;6067088;23;20181;-89
2023/09/20 01:25:22;;;;;;;2.50;1.40;;;13.20;99.90;;;;;;6066743;23;20173;-89
2023/09/20 01:27:49;;;;;;;1.50;1.40;;;13.10;99.90;;;;;;6041181;23;20376;-89
2023/09/20 01:30:17;;;;;;;2.75;1.20;;;13.20;99.90;;;;;;6067302;23;20177;-89
2023/09/20 01:32:44;;;;;;;2.53;1.33;;;13.10;99.90;;;;;;6041017;23;20178;-89
2023/09/20 01:35:11;;;;;;;2.60;1.52;;;13.20;99.90;;;;;;6041107;23;20173;-89
2023/09/20 01:37:38;;;;;;;1.42;1.33;;;13.10;99.90;;;;;;6066733;23;20239;-89
2023/09/20 01:40:15;;;;;;;2.85;1.38;;;13.10;99.90;;;;;;6041219;23;20587;-89
2023/09/20 01:42:42;;;;;;;1.95;1.58;;;13.10;99.90;;;;;;6066648;23;20165;-89
2023/09/20 01:45:14;;;;;;;1.42;1.33;;;13.10;99.90;;;;;;6065855;23;20272;-89
2023/09/20 01:47:42;;;;;;;1.60;1.50;;;13.10;99.90;;;;;;6066657;23;20170;-89
2023/09/20 01:50:10;;;;;;;2.65;1.40;;;13.10;99.90;;;;;;6067221;23;20573;-89
2023/09/20 01:52:38;;;;;;;1.98;1.60;;;13.10;99.90;;;;;;6041317;23;20625;-89
2023/09/20 01:55:09;;;;;;;2.13;1.50;;;13.10;99.90;;;;;;6066549;23;20883;-89
2023/09/20 01:57:36;;;;;;;1.30;1.20;;;13.20;99.90;;;;;;6066511;23;20177;-89
2023/09/20 02:00:16;;;;;;;1.50;1.40;;;13.30;99.90;;;;;;6018670;23;20232;-89
2023/09/20 02:02:44;;;;;;;1.33;1.23;;;13.30;99.90;;;;;;6066459;23;20217;-89
2023/09/20 02:05:17;;;;;;;3.88;1.40;;;13.30;99.90;;;;;;6067079;23;20177;-89
2023/09/20 02:07:45;;;;;;;2.03;1.40;;;13.30;99.90;;;;;;6066759;23;20230;-89
2023/09/20 02:10:14;;;;;;;1.75;1.40;;;13.40;99.90;;;;;;6041351;23;20296;-89
2023/09/20 02:12:44;;;;;;;1.50;1.40;;;13.40;99.90;;;;;;6066026;23;20173;-89
2023/09/20 02:15:12;;;;;;;3.55;1.70;;;13.30;99.90;;;;;;6040160;23;20193;-89
2023/09/20 02:17:39;;;;;;;1.30;1.20;;;13.30;99.90;;;;;;6041157;23;20551;-89
2023/09/20 02:20:09;;;;;;;1.80;1.40;;;13.30;99.90;;;;;;6065861;23;20185;-89
2023/09/20 02:22:38;;;;;;;1.52;1.30;;;13.30;99.90;;;;;;6040387;23;20213;-89
2023/09/20 02:25:11;;;;;;;1.52;1.42;;;13.40;99.90;;;;;;6065669;23;20181;-89
2023/09/20 02:27:40;;;;;;;1.70;1.30;;;13.50;99.90;;;;;;6042682;23;20165;-89
2023/09/20 02:30:10;;;;;;;1.80;1.30;;;13.40;99.90;;;;;;6040826;23;20233;-89
2023/09/20 02:32:37;;;;;;;1.88;1.40;;;13.30;99.90;;;;;;6066684;23;20177;-89
2023/09/20 02:35:06;;;;;;;2.88;1.48;;;13.20;99.90;;;;;;6041792;23;20201;-89
2023/09/20 02:37:34;;;;;;;1.42;1.33;;;13.10;99.90;;;;;;6040885;23;20233;-89
2023/09/20 02:40:01;;;;;;;1.63;1.52;;;13.00;99.90;;;;;;6040957;23;20318;-89
2023/09/20 02:42:28;;;;;;;1.58;1.48;;;13.10;99.90;;;;;;6066225;23;20177;-89
2023/09/20 02:44:56;;;;;;;1.60;1.50;;;13.10;99.90;;;;;;6066037;23;20177;-89
2023/09/20 02:47:26;;;;;;;1.38;1.27;;;13.10;99.90;;;;;;6040878;23;20244;-89
2023/09/20 02:49:53;;;;;;;1.65;1.55;;;13.10;99.90;;;;;;6041204;23;20266;-89
2023/09/20 02:52:21;;;;;;;2.10;1.48;;;13.10;99.90;;;;;;6040938;23;20197;-89
2023/09/20 02:54:49;;;;;;;1.98;1.45;;;13.10;99.90;;;;;;6066090;23;20585;-89
2023/09/20 02:57:16;;;;;;;1.40;1.30;;;13.10;99.90;;;;;;6065671;23;20182;-89
2023/09/20 02:59:44;;;;;;;1.42;1.33;;;13.00;99.90;;;;;;6065133;23;20538;-89
2023/09/20 03:02:12;;;;;;;3.95;1.20;;;13.00;99.90;;;;;;6066201;23;20264;-90
2023/09/20 03:04:39;;;;;;;1.27;1.17;;;13.00;99.90;;;;;;6066085;23;20216;-89
2023/09/20 03:07:09;;;;;;;2.15;1.30;;;13.00;99.90;;;;;;6066141;23;20173;-89
2023/09/20 03:09:37;;;;;;;1.40;1.30;;;13.00;99.90;;;;;;6067028;23;20181;-89
2023/09/20 03:12:06;;;;;;;1.60;1.50;;;12.90;99.90;;;;;;6040879;23;20191;-90
2023/09/20 03:14:38;;;;;;;1.38;1.25;;;12.80;99.90;;;;;;6040219;23;20205;-90
2023/09/20 03:17:05;;;;;;;2.40;1.50;;;12.80;99.90;;;;;;6042571;23;20168;-88
2023/09/20 03:19:34;;;;;;;1.95;1.40;;;12.80;99.90;;;;;;6036664;23;20217;-88
2023/09/20 03:22:01;;;;;;;1.95;1.30;;;12.80;99.90;;;;;;6036593;23;20178;-88
2023/09/20 03:24:29;;;;;;;1.30;1.20;;;12.80;99.90;;;;;;6037066;23;20245;-88
2023/09/20 03:26:57;;;;;;;1.40;1.30;;;12.80;99.90;;;;;;6012839;23;20185;-88
2023/09/20 03:29:26;;;;;;;1.73;1.35;;;12.80;99.90;;;;;;6037091;23;20178;-88
2023/09/20 03:31:56;;;;;;;1.50;1.40;;;12.70;99.90;;;;;;6011463;23;20505;-88
2023/09/20 03:34:23;;;;;;;1.73;1.10;;;12.80;99.90;;;;;;6036885;23;20526;-88
2023/09/20 03:36:52;;;;;;;2.63;1.50;;;12.70;99.90;;;;;;6037049;23;20683;-88
2023/09/20 03:39:24;;;;;;;4.57;1.33;;;12.70;99.90;;;;;;6036391;23;20174;-88
2023/09/20 03:41:52;;;;;;;2.45;1.48;;;12.70;99.90;;;;;;6037258;23;20652;-88
2023/09/20 03:44:19;;;;;;;2.75;1.40;;;12.70;99.90;;;;;;6037376;23;20649;-88
2023/09/20 03:46:47;;;;;;;1.45;1.35;;;12.70;99.90;;;;;;6036743;23;20186;-88
2023/09/20 03:49:15;;;;;;;3.45;1.55;;;12.70;99.90;;;;;;6036170;23;20500;-88
2023/09/20 03:51:42;;;;;;;2.28;1.38;;;12.70;99.90;;;;;;6037249;23;20201;-88
2023/09/20 03:54:10;;;;;;;1.55;1.45;;;12.60;99.90;;;;;;6037210;23;20190;-88
2023/09/20 03:56:39;;;;;;;1.33;1.23;;;12.60;99.90;;;;;;6038395;23;20618;-88
2023/09/20 03:59:06;;;;;;;2.45;1.65;;;12.60;99.90;;;;;;6038377;23;20178;-88
2023/09/20 04:01:35;;;;;;;2.03;1.30;;;12.50;99.90;;;;;;6037951;23;20174;-87
2023/09/20 04:04:03;;;;;;;2.17;1.40;;;12.50;99.90;;;;;;6038695;23;20184;-88
2023/09/20 04:06:34;;;;;;;1.83;1.40;;;12.50;99.90;;;;;;6015627;23;20209;-88
2023/09/20 04:09:09;;;;;;;1.85;1.27;;;12.50;99.90;;;;;;6037368;23;20195;-88
2023/09/20 04:11:38;;;;;;;3.97;1.63;;;12.60;99.90;;;;;;6040036;23;20168;-88
2023/09/20 04:14:07;;;;;;;3.20;1.50;;;12.60;99.90;;;;;;6037781;23;20517;-88
2023/09/20 04:16:34;;;;;;;2.70;1.70;;;12.50;99.90;;;;;;6039215;23;20206;-87
2023/09/20 04:19:01;;;;;;;1.48;1.38;;;12.50;99.90;;;;;;6053346;23;20190;-88
2023/09/20 04:21:28;;;;;;;2.45;1.38;;;12.40;99.90;;;;;;6067417;23;20253;-88
2023/09/20 04:23:55;;;;;;;3.25;1.70;;;12.40;99.90;;;;;;6066172;23;20177;-88
2023/09/20 04:26:22;;;;;;;3.30;1.67;;;12.40;99.90;;;;;;6041797;23;20178;-88
2023/09/20 04:28:50;;;;;;;2.47;1.52;;;12.40;99.90;;;;;;6067147;23;20499;-88
2023/09/20 04:31:17;;;;;;;3.05;1.55;;;12.50;99.90;;;;;;6067891;23;20177;-88
2023/09/20 04:33:44;;;;;;;7.03;2.28;;;12.60;99.90;;;;;;6066709;23;20180;-88
2023/09/20 04:36:12;;;;;;;1.98;1.77;;;12.70;99.90;;;;;;6066912;23;20640;-88
2023/09/20 04:38:40;;;;;;;2.38;1.83;;;12.70;99.90;;;;;;6065588;23;20704;-88
2023/09/20 04:41:11;;;;;;;1.85;1.50;;;12.80;99.90;;;;;;6066638;23;20177;-88
2023/09/20 04:43:39;;;;;;;2.70;1.70;;;12.80;99.90;;;;;;6040353;23;20478;-88
2023/09/20 04:46:08;;;;;;;1.85;1.70;;;12.80;99.90;;;;;;6066139;23;20224;-88
2023/09/20 04:48:35;;;;;;;2.47;2.08;;;12.70;99.90;;;;;;6064515;23;20493;-88
2023/09/20 04:51:02;;;;;;;1.95;1.63;;;12.70;99.90;;;;;;6066421;23;20981;-89
2023/09/20 04:53:29;;;;;;;3.78;1.95;;;12.80;99.90;;;;;;6042119;23;20224;-90
2023/09/20 04:55:56;;;;;;;1.90;1.80;;;12.80;99.90;;;;;;6065420;23;20204;-92
2023/09/20 04:58:23;;;;;;;2.42;1.70;;;12.80;99.90;;;;;;6040307;23;20178;-89
2023/09/20 05:00:50;;;;;;;2.10;2.00;;;12.70;99.90;;;;;;6065252;23;20180;-89
2023/09/20 05:03:19;;;;;;;4.88;1.50;;;12.50;99.90;;;;;;6067577;23;20212;-92
2023/09/20 05:05:47;;;;;;;1.83;1.48;;;12.40;99.90;;;;;;6066526;23;20256;-90
2023/09/20 05:08:15;;;;;;;5.60;1.60;;;12.30;99.90;;;;;;6042037;23;20181;-91
2023/09/20 05:10:43;;;;;;;1.63;1.42;;;12.30;99.90;;;;;;6018943;23;20180;-89
2023/09/20 05:13:13;;;;;;;2.55;1.60;;;12.30;99.90;;;;;;6067161;23;20625;-88
2023/09/20 05:15:40;;;;;;;4.30;1.73;;;12.30;99.90;;;;;;6041034;23;20201;-89
2023/09/20 05:18:08;;;;;;;2.47;1.70;;;12.30;99.90;;;;;;6066820;23;20205;-90
2023/09/20 05:20:36;;;;;;;1.70;1.60;;;12.40;99.90;;;;;;6066133;23;20213;-90
2023/09/20 05:23:05;;;;;;;3.17;1.73;;;12.40;99.90;;;;;;6018950;23;20173;-91
2023/09/20 05:25:33;;;;;;;1.85;1.73;;;12.40;99.90;;;;;;6013845;23;20647;-90
2023/09/20 05:28:01;;;;;;;2.67;1.60;;;12.40;99.90;;;;;;6068507;23;20271;-90
2023/09/20 05:30:28;;;;;;;2.75;1.80;;;12.40;99.90;;;;;;6067693;23;20177;-91
2023/09/20 05:32:55;;;;;;;4.97;1.80;;;12.50;99.90;;;;;;6067537;23;20184;-91
2023/09/20 05:35:22;;;;;;;2.13;1.80;;;12.50;99.90;;;;;;6041154;23;20197;-91
2023/09/20 05:37:50;;;;;;;1.73;1.60;;;12.50;99.90;;;;;;6067382;23;20184;-92
2023/09/20 05:42:58;;;;;;;2.05;1.80;;;12.50;99.90;;;;;;6063761;23;20260;-90
2023/09/20 05:45:26;;;;;;;3.80;1.60;;;12.50;99.90;;;;;;6066320;23;20182;-90
2023/09/20 05:48:12;;;;;;;4.18;1.92;;;12.60;99.90;;;;;;6064326;23;20173;-90
2023/09/20 05:50:40;;;;;;;2.80;1.52;;;12.60;99.90;;;;;;6039964;23;20205;-89
2023/09/20 05:55:50;;;;;;;1.98;1.65;;;12.70;99.90;;;;;;6063428;23;20197;-90
2023/09/20 05:58:17;;;;;;;1.70;1.60;;;12.80;99.90;;;;;;6039354;23;20519;-89
2023/09/20 06:00:44;;;;;;;3.58;1.85;;;12.80;99.90;;;;;;6065945;23;20197;-91
2023/09/20 06:03:12;;;;;;;3.20;1.60;;;12.80;99.90;;;;;;6066985;23;20177;-91
2023/09/20 06:05:39;;;;;;;2.60;1.85;;;12.90;99.90;;;;;;6039748;23;20518;-91
2023/09/20 06:08:08;;;;;;;4.22;1.80;;;13.00;99.90;;;;;;6041385;23;20620;-90
2023/09/20 06:10:36;;;;;;;2.92;2.10;;;13.00;99.90;;;;;;6039440;23;20544;-91
2023/09/20 06:13:05;;;;;;;2.85;1.92;;;13.10;99.90;;;;;;6063885;23;21239;-90
2023/09/20 06:15:32;;;;;;;3.53;1.50;;;13.20;99.90;;;;;;6039717;23;20205;-91
2023/09/20 06:17:59;;;;;;;4.50;1.98;;;13.30;99.90;;;;;;6040513;23;20181;-90
2023/09/20 06:20:26;;;;;;;2.13;1.80;;;13.40;99.90;;;;;;6062790;23;20176;-90
2023/09/20 06:22:54;;;;;;;3.30;1.73;;;13.50;99.90;;;;;;6063897;23;20192;-89
2023/09/20 06:28:05;;;;;;;3.47;1.83;;;13.80;99.90;;;;;;6064226;23;20173;-90
2023/09/20 06:30:32;;;;;;;2.25;1.90;;;13.90;99.90;;;;;;6038976;23;20181;-90
2023/09/20 06:32:58;;;;;;;3.03;1.63;;;14.00;99.90;;;;;;6064348;23;20196;-89
2023/09/20 06:35:25;;;;;;;5.32;1.83;;;14.00;99.90;;;;;;6064927;23;20198;-90
2023/09/20 06:37:52;;;;;;;3.65;2.00;;;14.00;99.90;;;;;;6066183;23;20256;-91
2023/09/20 06:40:22;;;;;;;1.83;1.60;;;14.10;99.90;;;;;;6065475;23;20176;-91
2023/09/20 06:42:51;;;;;;;3.70;1.77;;;14.20;99.90;;;;;;6041393;23;20541;-91
2023/09/20 06:45:18;;;;;;;2.47;1.80;;;14.40;99.90;;;;;;6067280;23;20507;-91
2023/09/20 06:47:45;;;;;;;3.78;1.58;;;14.50;99.90;;;;;;6040405;23;20179;-91
2023/09/20 06:50:13;;;;;;;4.05;1.60;;;14.50;99.90;;;;;;6038960;23;20186;-91
2023/09/20 06:52:42;;;;;;;2.95;1.65;;;14.50;99.90;;;;;;6040577;23;20510;-92
2023/09/20 06:55:16;;;;;;;1.80;1.70;;;14.60;99.90;;;;;;6064988;23;20308;-91
2023/09/20 06:57:43;;;;;;;1.90;1.73;;;14.70;99.90;;;;;;6039584;23;20248;-91
2023/09/20 07:00:21;;;;;;;7.60;2.92;;;14.80;99.90;;;;;;6065652;23;20902;-91
2023/09/20 07:02:49;;;;;;;9.63;4.00;;;14.80;99.90;;;;;;6063414;23;20198;-91
2023/09/20 07:05:17;;;;;;;13.60;5.40;;;14.90;99.90;;;;;;6063600;23;20183;-91
2023/09/20 07:07:44;;;;;;;8.90;3.42;;;15.10;99.90;;;;;;6064935;23;20181;-91
2023/09/20 07:10:11;;;;;;;5.03;2.70;;;15.20;99.90;;;;;;6061508;23;20182;-91
2023/09/20 07:12:38;;;;;;;5.15;2.17;;;15.30;99.90;;;;;;6065516;23;20181;-92
2023/09/20 07:15:08;;;;;;;3.58;2.10;;;15.40;99.90;;;;;;6065053;23;20200;-91
2023/09/20 07:17:40;;;;;;;5.63;2.92;;;15.50;99.90;;;;;;6041512;23;20173;-92
2023/09/20 07:20:14;;;;;;;5.22;1.70;;;15.50;99.90;;;;;;6066382;23;20181;-91
2023/09/20 07:22:43;;;;;;;3.03;1.90;;;15.60;99.90;;;;;;6066130;23;20192;-92
2023/09/20 07:25:17;;;;;;;3.55;2.05;;;15.90;99.90;;;;;;6040781;23;20177;-91
2023/09/20 07:27:44;;;;;;;3.63;2.45;;;16.10;99.90;;;;;;6067087;23;20654;-92
2023/09/20 07:30:17;;;;;;;9.20;7.05;;;16.30;99.60;;;;;;6065647;23;20169;-92
2023/09/20 07:32:45;;;;;;;12.15;9.63;;;16.40;99.90;;;;;;6041284;23;20548;-91
2023/09/20 07:35:26;;;;;;;83.18;64.32;;;16.60;99.20;;;;;;6066022;23;20200;-90
2023/09/20 07:37:56;;;;;;;7.47;3.67;;;16.70;98.80;;;;;;6066168;23;20225;-91
2023/09/20 07:40:26;;;;;;;11.68;9.77;;;16.90;97.80;;;;;;6065608;23;20228;-90
2023/09/20 07:42:53;;;;;;;7.78;6.35;;;17.00;97.40;;;;;;5992930;23;20647;-90
2023/09/20 07:45:24;;;;;;;6.65;5.07;;;17.00;97.40;;;;;;6063599;23;20253;-90
2023/09/20 07:47:52;;;;;;;5.55;1.70;;;17.00;96.30;;;;;;6064847;23;20244;-89
2023/09/20 07:50:19;;;;;;;6.13;3.15;;;17.10;95.50;;;;;;6064094;23;20636;-90
2023/09/20 07:52:46;;;;;;;6.20;4.38;;;17.20;95.30;;;;;;6064684;23;20192;-90
2023/09/20 07:55:13;;;;;;;2.03;1.42;;;17.20;95.20;;;;;;6062569;23;20399;-93
2023/09/20 07:57:40;;;;;;;3.92;2.42;;;17.30;95.00;;;;;;6064093;23;20199;-92
2023/09/20 08:00:10;;;;;;;2.05;1.50;;;17.30;94.80;;;;;;6064486;23;20679;-91
2023/09/20 08:02:38;;;;;;;3.83;1.98;;;17.70;93.70;;;;;;6033768;23;20513;-91
2023/09/20 08:07:49;;;;;;;4.50;2.35;;;17.90;91.10;;;;;;6063455;23;20201;-92
2023/09/20 08:10:16;;;;;;;2.65;1.65;;;18.00;91.40;;;;;;6064887;23;20177;-92
2023/09/20 08:12:43;;;;;;;4.15;1.98;;;18.00;90.60;;;;;;6038961;23;20185;-92
2023/09/20 08:15:12;;;;;;;3.10;1.60;;;18.10;91.50;;;;;;6063457;23;20987;-92
2023/09/20 08:20:27;;;;;;;2.33;1.45;;;18.30;88.00;;;;;;6064990;23;20176;-92
2023/09/20 09:01:37;;;;;;;1.50;1.40;;;24.30;29.60;;;;;;6066844;23;20160;-85
2023/09/20 09:04:07;;;;;;;3.45;1.40;;;25.30;23.20;;;;;;6041261;23;20211;-86
2023/09/20 09:06:34;;;;;;;1.55;1.42;;;25.50;22.20;;;;;;6041995;23;20904;-85
2023/09/20 09:09:03;;;;;;;1.55;1.45;;;25.60;21.20;;;;;;6041782;23;20176;-88
2023/09/20 09:11:30;;;;;;;4.78;1.63;;;25.50;22.30;;;;;;6066699;23;20275;-88
2023/09/20 09:13:58;;;;;;;1.85;1.67;;;25.40;20.10;;;;;;6065267;23;20173;-90
2023/09/20 09:16:26;;;;;;;1.70;1.60;;;25.80;19.80;;;;;;6064274;23;20511;-87
2023/09/20 09:18:54;;;;;;;2.22;1.73;;;25.60;20.90;;;;;;6065821;23;20246;-88
2023/09/20 09:21:22;;;;;;;1.40;1.30;;;25.50;21.20;;;;;;6017101;23;20620;-87
2023/09/20 09:23:49;;;;;;;1.58;1.48;;;25.80;19.60;;;;;;6066037;23;20173;-87
2023/09/20 09:26:17;;;;;;;1.45;1.35;;;26.40;18.10;;;;;;6064500;23;20179;-89
2023/09/20 09:28:46;;;;;;;2.03;1.50;;;27.20;15.20;;;;;;6067122;23;20200;-88
2023/09/20 09:31:14;;;;;;;1.70;1.60;;;27.60;15.50;;;;;;6066627;23;20177;-88
2023/09/20 09:33:41;;;;;;;1.60;1.50;;;28.80;14.00;;;;;;6064462;23;20179;-87
2023/09/20 09:36:10;;;;;;;1.63;1.52;;;28.40;13.70;;;;;;6065647;23;20208;-87
2023/09/20 09:38:39;;;;;;;1.80;1.60;;;28.30;15.80;;;;;;6064550;23;20173;-88
2023/09/20 09:41:08;;;;;;;1.70;1.60;;;29.00;14.00;;;;;;6065587;23;20268;-87
2023/09/20 09:43:37;;;;;;;1.75;1.60;;;29.20;13.40;;;;;;6065656;23;20259;-88
2023/09/20 09:46:08;;;;;;;3.30;1.90;;;29.60;12.80;;;;;;6041758;23;20177;-87
2023/09/20 09:48:37;;;;;;;2.05;1.70;;;29.90;11.60;;;;;;6065821;23;20179;-90
2023/09/20 09:51:06;;;;;;;2.17;1.83;;;30.30;10.20;;;;;;6016374;23;20228;-90
2023/09/20 09:53:36;;;;;;;3.25;2.00;;;30.90;8.60;;;;;;6040558;23;20176;-89
2023/09/20 09:56:05;;;;;;;2.05;1.75;;;30.00;9.80;;;;;;6066488;23;20188;-89
2023/09/20 09:58:33;;;;;;;2.20;2.00;;;30.00;10.50;;;;;;6041904;23;20758;-89
2023/09/20 10:01:05;;;;;;;1.88;1.77;;;29.80;11.30;;;;;;6041533;23;20176;-88
2023/09/20 10:03:35;;;;;;;2.00;1.90;;;29.80;10.00;;;;;;6040625;23;20184;-88
2023/09/20 10:06:09;;;;;;;2.08;1.98;;;29.70;10.80;;;;;;6066808;23;20208;-88
2023/09/20 10:08:39;;;;;;;2.20;2.08;;;29.50;10.50;;;;;;6066655;23;20161;-87
2023/09/20 10:11:06;;;;;;;2.10;1.90;;;29.70;9.90;;;;;;6065877;23;20173;-89
2023/09/20 10:13:35;;;;;;;2.05;1.95;;;29.20;11.40;;;;;;6041109;23;20177;-89
2023/09/20 10:16:10;;;;;;;3.45;1.80;;;28.60;11.50;;;;;;6039076;23;20197;-89
2023/09/20 10:18:55;;;;;;;3.33;1.83;;;27.50;13.60;;;;;;6066034;23;20188;-88
2023/09/20 10:21:24;;;;;;;1.80;1.65;;;27.80;14.00;;;;;;6065561;23;20204;-88
2023/09/20 10:23:55;;;;;;;3.28;1.80;;;28.20;13.30;;;;;;6039063;23;20177;-87
2023/09/20 10:26:22;;;;;;;1.80;1.70;;;28.10;11.50;;;;;;6065712;23;20687;-87
2023/09/20 10:28:53;;;;;;;2.20;1.95;;;28.10;12.60;;;;;;6064792;23;20183;-87
2023/09/20 10:31:21;;;;;;;1.83;1.67;;;28.00;14.40;;;;;;6067206;23;20165;-86
2023/09/20 10:33:52;;;;;;;2.63;1.98;;;28.40;15.10;;;;;;6062515;23;20181;-86
2023/09/20 10:36:20;;;;;;;3.53;2.05;;;28.30;12.90;;;;;;6039034;23;20189;-86
2023/09/20 10:38:48;;;;;;;3.47;1.73;;;28.60;12.20;;;;;;6063753;23;20180;-88
2023/09/20 10:41:16;;;;;;;1.92;1.77;;;28.50;12.20;;;;;;6065981;23;20173;-87
2023/09/20 10:43:56;;;;;;;3.92;1.80;;;29.00;13.30;;;;;;6063911;23;20180;-87
2023/09/20 10:46:25;;;;;;;2.30;1.70;;;29.60;8.40;;;;;;6066642;23;20168;-87
2023/09/20 10:48:51;;;;;;;1.52;1.42;;;28.00;11.20;;;;;;6066041;23;20173;-88
2023/09/20 10:51:41;;;;;;;2.03;1.60;;;27.20;15.30;;;;;;6066374;23;20197;-89
2023/09/20 10:54:26;;;;;;;1.70;1.60;;;27.50;13.10;;;;;;6064603;23;20181;-88
2023/09/20 10:57:05;;;;;;;2.20;1.50;;;27.50;14.60;;;;;;6065320;23;20194;-86
2023/09/20 10:59:32;;;;;;;1.50;1.40;;;27.60;14.40;;;;;;6065690;23;20219;-87
2023/09/20 11:02:09;;;;;;;1.70;1.50;;;26.60;14.90;;;;;;6066130;23;20173;-88
2023/09/20 11:04:38;;;;;;;2.13;1.80;;;26.50;14.90;;;;;;6065093;23;20168;-87
2023/09/20 11:07:06;;;;;;;1.73;1.30;;;26.50;14.90;;;;;;6065859;23;20176;-85
2023/09/20 11:09:33;;;;;;;2.42;1.38;;;25.80;14.50;;;;;;6065576;23;20203;-86
2023/09/20 11:12:06;;;;;;;2.67;1.73;;;25.80;15.00;;;;;;6065194;23;20241;-87
2023/09/20 11:14:37;;;;;;;2.08;1.30;;;25.50;16.60;;;;;;6042159;23;20172;-89
2023/09/20 11:17:05;;;;;;;3.80;2.00;;;25.30;18.00;;;;;;6060103;23;20259;-89
2023/09/20 11:19:35;;;;;;;1.52;1.42;;;25.20;19.00;;;;;;6066653;23;20187;-89
2023/09/20 11:22:02;;;;;;;3.72;1.38;;;25.30;18.70;;;;;;6040787;23;20571;-89
2023/09/20 11:24:29;;;;;;;1.60;1.50;;;25.20;18.90;;;;;;6041028;23;20183;-89
2023/09/20 11:26:57;;;;;;;1.40;1.30;;;25.20;19.50;;;;;;6065340;23;20621;-88
2023/09/20 11:29:25;;;;;;;2.13;1.45;;;25.20;18.50;;;;;;6041072;23;20682;-89
2023/09/20 11:31:56;;;;;;;1.73;1.27;;;25.00;19.00;;;;;;6042194;23;20256;-87
2023/09/20 11:34:24;;;;;;;2.13;1.67;;;25.00;20.60;;;;;;6066363;23;20209;-88
2023/09/20 11:36:53;;;;;;;1.60;1.50;;;25.00;18.80;;;;;;6040827;23;20204;-90
2023/09/20 11:39:28;;;;;;;1.60;1.30;;;24.90;18.90;;;;;;6066278;23;20204;-87
2023/09/20 11:42:00;;;;;;;2.53;1.48;;;24.90;19.00;;;;;;6065628;23;20519;-86
2023/09/20 11:44:28;;;;;;;1.75;1.50;;;24.90;18.40;;;;;;6064456;23;20196;-87
2023/09/20 11:46:57;;;;;;;2.83;1.70;;;25.00;18.90;;;;;;6065279;23;20177;-86
2023/09/20 11:49:26;;;;;;;1.60;1.50;;;25.00;19.40;;;;;;6066409;23;20184;-87
2023/09/20 11:51:57;;;;;;;4.07;1.42;;;24.40;20.00;;;;;;6064879;23;20601;-86
2023/09/20 11:54:28;;;;;;;2.17;2.00;;;24.40;20.40;;;;;;6063007;23;20197;-86
2023/09/20 11:57:00;;;;;;;1.52;1.30;;;24.60;21.10;;;;;;6063568;23;20264;-86
2023/09/20 11:59:27;;;;;;;1.60;1.50;;;24.10;20.20;;;;;;6064744;23;20177;-87
2023/09/20 12:01:54;;;;;;;1.52;1.33;;;24.30;20.50;;;;;;6065172;23;20786;-86
2023/09/20 12:04:21;;;;;;;1.35;1.23;;;24.50;19.50;;;;;;6065591;23;20177;-86
2023/09/20 12:06:50;;;;;;;2.10;1.30;;;24.30;21.80;;;;;;6065394;23;20681;-86
2023/09/20 12:09:19;;;;;;;3.45;1.52;;;24.50;20.90;;;;;;6063177;23;20173;-85
2023/09/20 12:11:46;;;;;;;2.28;1.55;;;24.50;23.00;;;;;;6065763;23;20188;-86
2023/09/20 12:14:14;;;;;;;2.10;1.63;;;24.40;21.40;;;;;;6064208;23;20173;-86
2023/09/20 12:16:47;;;;;;;1.92;1.40;;;24.50;21.40;;;;;;6064541;23;20251;-86
2023/09/20 12:19:14;;;;;;;2.13;1.30;;;24.50;22.10;;;;;;6065830;23;20185;-85
2023/09/20 12:21:41;;;;;;;2.35;1.30;;;24.50;22.30;;;;;;6042320;23;20178;-85
2023/09/20 12:24:08;;;;;;;1.38;1.27;;;24.60;21.00;;;;;;6067079;23;20173;-85
2023/09/20 12:26:37;;;;;;;2.90;1.73;;;24.60;20.70;;;;;;6068142;23;20185;-85
2023/09/20 12:29:05;;;;;;;3.15;2.72;;;24.50;23.20;;;;;;6066539;23;20177;-86
2023/09/20 12:31:32;;;;;;;2.78;1.60;;;24.50;21.00;;;;;;6067729;23;20184;-86
2023/09/20 12:34:00;;;;;;;1.83;1.73;;;24.50;23.50;;;;;;6065892;23;20700;-86
2023/09/20 12:36:27;;;;;;;4.40;1.50;;;24.60;21.90;;;;;;6066953;23;20656;-86
2023/09/20 12:38:54;;;;;;;1.55;1.45;;;24.60;23.50;;;;;;6067110;23;20179;-86
2023/09/20 12:41:21;;;;;;;1.80;1.70;;;24.50;21.90;;;;;;6064934;23;20179;-85
2023/09/20 12:43:50;;;;;;;1.80;1.70;;;24.60;22.80;;;;;;6065671;23;20177;-86
2023/09/20 12:46:17;;;;;;;1.50;1.40;;;24.60;22.20;;;;;;6066059;23;20181;-86
2023/09/20 12:48:44;;;;;;;1.42;1.33;;;24.40;23.20;;;;;;6067064;23;20744;-86
2023/09/20 12:51:12;;;;;;;3.85;1.50;;;24.50;23.30;;;;;;6040928;23;20203;-86
2023/09/20 12:53:41;;;;;;;1.77;1.40;;;24.50;22.90;;;;;;6066883;23;20241;-86
2023/09/20 12:56:11;;;;;;;1.70;1.60;;;24.50;23.00;;;;;;6066924;23;20173;-86
2023/09/20 12:58:38;;;;;;;1.92;1.60;;;24.50;24.00;;;;;;6042983;23;20684;-86
2023/09/20 13:01:07;;;;;;;1.70;1.58;;;24.50;23.20;;;;;;6041073;23;20185;-86
2023/09/20 13:03:34;;;;;;;1.30;1.20;;;24.40;24.10;;;;;;6065646;23;20678;-85
2023/09/20 13:06:01;;;;;;;1.90;1.50;;;24.30;23.90;;;;;;6066218;23;20185;-86
2023/09/20 13:08:28;;;;;;;1.52;1.42;;;24.40;24.80;;;;;;6067137;23;20514;-86
2023/09/20 13:10:55;;;;;;;1.70;1.60;;;24.40;25.10;;;;;;6066260;23;20188;-86
2023/09/20 13:13:22;;;;;;;3.35;1.60;;;24.50;23.90;;;;;;6065998;23;20174;-85
2023/09/20 13:15:49;;;;;;;3.83;1.70;;;24.50;24.00;;;;;;6066392;23;20177;-85
2023/09/20 13:18:17;;;;;;;2.10;1.73;;;24.40;24.80;;;;;;6066056;23;20213;-86
2023/09/20 13:20:44;;;;;;;2.28;1.50;;;24.40;24.50;;;;;;6066052;23;20181;-85
2023/09/20 13:23:12;;;;;;;3.95;1.60;;;24.40;25.60;;;;;;6040793;23;20259;-86
2023/09/20 13:25:41;;;;;;;1.98;1.77;;;24.40;26.30;;;;;;6066821;23;20173;-86
2023/09/20 13:28:08;;;;;;;4.30;1.80;;;24.40;26.40;;;;;;6067522;23;20628;-85
2023/09/20 13:30:37;;;;;;;2.70;1.60;;;24.40;25.70;;;;;;6066415;23;20628;-86
2023/09/20 13:33:05;;;;;;;4.50;1.92;;;24.40;26.90;;;;;;6066747;23;20188;-86
2023/09/20 13:35:34;;;;;;;3.00;1.55;;;24.40;27.30;;;;;;6066827;23;20224;-86
2023/09/20 13:38:03;;;;;;;2.35;1.60;;;24.30;26.20;;;;;;6041407;23;20614;-85
2023/09/20 13:40:30;;;;;;;2.28;1.48;;;24.40;26.00;;;;;;6066100;23;20177;-86
2023/09/20 13:42:58;;;;;;;1.73;1.58;;;24.40;24.30;;;;;;6065934;23;20481;-86
2023/09/20 13:45:26;;;;;;;1.92;1.63;;;24.40;25.40;;;;;;6056771;23;20181;-86
2023/09/20 13:47:53;;;;;;;1.80;1.50;;;24.40;24.80;;;;;;6065850;23;20553;-85